createdAt,value
2017-10-20T00:02:10.894Z,82.48
2017-10-20T00:04:42.560Z,84.79
2017-10-20T00:07:13.863Z,85.27
2017-10-20T00:09:45.118Z,81.55
2017-10-20T00:12:16.436Z,81.57
2017-10-20T00:14:47.917Z,81.96
2017-10-20T00:17:19.209Z,82.62
2017-10-20T00:19:50.640Z,82.96
2017-10-20T00:22:22.480Z,82.41
2017-10-20T00:24:53.560Z,82.33
2017-10-20T00:27:24.936Z,82.72
2017-10-20T00:29:56.206Z,82.28
2017-10-20T00:32:27.248Z,82.21
2017-10-20T00:34:58.414Z,81.89
2017-10-20T00:37:30.081Z,81.63
2017-10-20T00:40:01.185Z,82.60
2017-10-20T00:42:32.319Z,81.28
2017-10-20T00:45:04.097Z,81.13
2017-10-20T00:47:37.398Z,82.67
2017-10-20T00:50:11.712Z,82.46
2017-10-20T00:52:43.248Z,81.46
2017-10-20T00:55:13.914Z,81.21
2017-10-20T00:57:45.139Z,81.09
2017-10-20T01:00:16.892Z,80.88
2017-10-20T01:02:47.862Z,83.56
2017-10-20T01:05:18.936Z,81.67
2017-10-20T01:07:50.760Z,81.67
2017-10-20T01:10:22.179Z,82.99
2017-10-20T01:12:53.432Z,83.31
2017-10-20T01:15:24.262Z,83.30
2017-10-20T01:17:55.416Z,87.30
2017-10-20T01:20:28.133Z,83.49
2017-10-20T01:22:59.298Z,83.07
2017-10-20T01:25:31.067Z,82.87
2017-10-20T01:28:02.992Z,82.18
2017-10-20T01:30:38.393Z,83.90
2017-10-20T01:33:10.325Z,85.98
2017-10-20T01:35:42.996Z,87.13
2017-10-20T01:43:50.165Z,84.85
2017-10-20T01:46:21.357Z,84.03
2017-10-20T01:48:53.063Z,85.98
2017-10-20T01:51:24.470Z,85.37
2017-10-20T01:53:55.839Z,86.92
2017-10-20T01:56:27.669Z,84.50
2017-10-20T01:58:59.450Z,83.59
2017-10-20T02:01:33.183Z,83.67
2017-10-20T02:04:05.054Z,83.67
2017-10-20T02:06:38.110Z,86.66
2017-10-20T02:09:09.029Z,84.10
2017-10-20T02:11:45.948Z,83.66
2017-10-20T02:14:16.509Z,86.41
2017-10-20T02:16:47.549Z,84.17
2017-10-20T02:19:18.948Z,84.48
2017-10-20T02:21:50.625Z,84.99
2017-10-20T02:24:24.496Z,84.66
2017-10-20T02:26:55.510Z,84.43
2017-10-20T02:29:26.360Z,84.43
2017-10-20T02:31:57.922Z,84.79
2017-10-20T02:34:28.809Z,85.54
2017-10-20T02:36:59.923Z,85.84
2017-10-20T02:39:31.361Z,85.28
2017-10-20T02:42:08.049Z,88.16
2017-10-20T02:44:40.772Z,86.04
2017-10-20T02:47:12.021Z,85.79
2017-10-20T02:49:43.435Z,85.25
2017-10-20T02:52:14.717Z,85.45
2017-10-20T02:54:45.637Z,85.33
2017-10-20T02:57:16.892Z,85.47
2017-10-20T02:59:48.681Z,85.66
2017-10-20T03:02:19.934Z,84.81
2017-10-20T03:04:51.592Z,84.78
2017-10-20T03:07:23.024Z,84.76
2017-10-20T03:09:54.127Z,86.99
2017-10-20T03:12:25.253Z,85.54
2017-10-20T03:14:56.712Z,85.07
2017-10-20T03:17:27.368Z,85.10
2017-10-20T03:19:58.765Z,85.01
2017-10-20T03:22:30.314Z,84.91
2017-10-20T03:25:01.540Z,84.62
2017-10-20T03:27:32.871Z,85.12
2017-10-20T03:30:04.213Z,84.77
2017-10-20T03:32:37.549Z,84.71
2017-10-20T03:35:09.546Z,84.68
2017-10-20T03:37:42.333Z,83.79
2017-10-20T03:40:15.219Z,82.71
2017-10-20T03:42:46.370Z,82.20
2017-10-20T03:45:17.338Z,82.05
2017-10-20T03:47:48.684Z,81.66
2017-10-20T03:50:19.886Z,81.19
2017-10-20T03:52:51.180Z,80.76
2017-10-20T03:55:22.750Z,80.44
2017-10-20T03:57:53.570Z,80.46
2017-10-20T04:00:24.621Z,80.42
2017-10-20T04:02:55.429Z,80.26
2017-10-20T04:06:50.486Z,80.34
2017-10-20T04:09:21.405Z,82.73
2017-10-20T04:11:53.187Z,82.86
2017-10-20T04:14:26.917Z,82.41
2017-10-20T04:16:58.163Z,82.19
2017-10-20T04:19:29.800Z,82.00
2017-10-20T04:22:00.483Z,82.53
2017-10-20T04:24:31.246Z,82.57
2017-10-20T04:27:02.885Z,85.39
2017-10-20T04:29:33.472Z,83.46
2017-10-20T04:34:42.755Z,83.96
2017-10-20T04:37:13.643Z,83.80
2017-10-20T04:39:44.300Z,85.23
2017-10-20T04:42:14.835Z,83.45
2017-10-20T04:44:45.688Z,84.96
2017-10-20T04:47:17.772Z,82.64
2017-10-20T04:49:49.166Z,85.02
2017-10-20T04:52:21.331Z,82.99
2017-10-20T04:54:52.066Z,83.11
2017-10-20T04:57:22.735Z,83.88
2017-10-20T04:59:54.458Z,84.05
2017-10-20T05:02:25.529Z,83.35
2017-10-20T05:04:56.543Z,82.63
2017-10-20T05:07:27.507Z,82.25
2017-10-20T05:10:01.606Z,81.47
2017-10-20T05:12:33.749Z,80.87
2017-10-20T05:15:05.731Z,81.74
2017-10-20T05:17:41.375Z,81.33
2017-10-20T05:20:13.226Z,78.98
2017-10-20T05:22:44.866Z,79.96
2017-10-20T05:25:15.274Z,82.54
2017-10-20T05:27:46.062Z,82.66
2017-10-20T05:30:16.737Z,84.08
2017-10-20T05:32:47.892Z,83.86
2017-10-20T05:35:19.155Z,85.35
2017-10-20T05:37:50.496Z,85.77
2017-10-20T05:40:22.430Z,86.11
2017-10-20T05:42:56.302Z,87.36
2017-10-20T05:45:29.174Z,87.11
2017-10-20T05:47:59.809Z,86.78
2017-10-20T05:50:30.898Z,86.16
2017-10-20T05:53:02.133Z,87.02
2017-10-20T05:55:33.117Z,87.55
2017-10-20T05:58:05.869Z,85.87
2017-10-20T06:00:39.421Z,87.33
2017-10-20T06:03:11.092Z,85.41
2017-10-20T06:05:41.898Z,87.03
2017-10-20T06:08:13.002Z,87.35
2017-10-20T06:10:43.756Z,86.77
2017-10-20T06:13:14.816Z,87.12
2017-10-20T06:15:45.516Z,87.37
2017-10-20T06:18:17.319Z,87.37
2017-10-20T06:20:49.421Z,87.20
2017-10-20T06:23:20.122Z,87.33
2017-10-20T06:25:51.438Z,88.80
2017-10-20T06:28:24.051Z,88.39
2017-10-20T06:30:54.592Z,87.08
2017-10-20T06:33:25.507Z,87.57
2017-10-20T06:35:58.274Z,86.62
2017-10-20T06:38:29.257Z,85.48
2017-10-20T06:40:59.907Z,84.86
2017-10-20T06:43:35.993Z,84.79
2017-10-20T06:46:08.880Z,84.13
2017-10-20T06:48:42.714Z,83.70
2017-10-20T06:51:16.139Z,80.86
2017-10-20T06:53:48.688Z,80.06
2017-10-20T06:56:20.389Z,79.83
2017-10-20T06:58:52.920Z,80.14
2017-10-20T07:01:23.569Z,80.62
2017-10-20T07:04:00.289Z,80.47
2017-10-20T07:06:31.063Z,80.73
2017-10-20T07:09:02.017Z,82.10
2017-10-20T07:11:32.983Z,82.07
2017-10-20T07:14:09.045Z,81.38
2017-10-20T07:16:43.103Z,81.18
2017-10-20T07:19:14.349Z,81.97
2017-10-20T07:21:47.790Z,79.70
2017-10-20T07:24:22.795Z,79.88
2017-10-20T07:26:55.571Z,78.51
2017-10-20T07:29:27.201Z,77.18
2017-10-20T07:31:59.933Z,78.45
2017-10-20T07:34:31.754Z,78.18
2017-10-20T07:37:04.200Z,77.67
2017-10-20T07:39:37.863Z,78.02
2017-10-20T07:42:08.615Z,74.87
2017-10-20T07:44:45.290Z,76.84
2017-10-20T07:47:16.842Z,77.40
2017-10-20T07:49:50.019Z,76.80
2017-10-20T07:52:20.449Z,78.17
2017-10-20T07:54:51.717Z,80.35
2017-10-20T07:57:24.220Z,82.44
2017-10-20T07:59:55.239Z,81.77
2017-10-20T08:02:26.293Z,81.91
2017-10-20T08:04:57.050Z,81.76
2017-10-20T08:07:28.104Z,80.86
2017-10-20T08:09:59.683Z,79.05
2017-10-20T08:12:30.905Z,80.69
2017-10-20T08:15:04.868Z,81.52
2017-10-20T08:17:38.708Z,76.24
2017-10-20T08:20:09.869Z,67.54
2017-10-20T08:25:25.324Z,63.18
2017-10-20T08:31:04.091Z,76.84
2017-10-20T08:33:47.506Z,79.90
2017-10-20T08:36:23.893Z,79.94
2017-10-20T08:38:55.792Z,71.31
2017-10-20T08:41:27.950Z,65.33
2017-10-20T08:43:58.830Z,62.18
2017-10-20T08:46:30.562Z,60.10
2017-10-20T08:49:02.899Z,59.99
2017-10-20T08:51:39.334Z,58.98
2017-10-20T08:54:11.844Z,57.76
2017-10-20T08:56:42.945Z,56.17
2017-10-20T08:59:15.726Z,66.01
2017-10-20T09:01:46.773Z,71.31
2017-10-20T09:04:17.432Z,73.01
2017-10-20T09:06:48.141Z,71.48
2017-10-20T09:09:19.665Z,71.29
2017-10-20T09:11:50.340Z,61.48
2017-10-20T09:14:21.021Z,63.98
2017-10-20T09:16:51.820Z,68.49
2017-10-20T09:19:22.474Z,68.46
2017-10-20T09:21:53.225Z,64.17
2017-10-20T09:24:28.750Z,61.19
2017-10-20T09:26:59.461Z,60.34
2017-10-20T09:29:39.503Z,60.79
2017-10-20T09:32:19.430Z,59.80
2017-10-20T09:40:51.124Z,60.45
2017-10-20T09:43:34.403Z,61.34
2017-10-20T09:46:07.625Z,60.85
2017-10-20T09:48:48.197Z,61.29
2017-10-20T09:51:22.466Z,61.85
2017-10-20T09:53:53.682Z,61.63
2017-10-20T09:56:25.703Z,61.43
2017-10-20T09:58:59.205Z,62.59
2017-10-20T10:01:37.473Z,61.32
2017-10-20T10:04:13.776Z,62.08
2017-10-20T10:06:48.312Z,61.72
2017-10-20T10:09:22.621Z,62.12
2017-10-20T10:11:53.839Z,62.07
2017-10-20T10:14:26.426Z,62.24
2017-10-20T10:16:58.046Z,62.42
2017-10-20T10:19:33.172Z,61.92
2017-10-20T10:22:03.828Z,62.06
2017-10-20T10:24:49.296Z,62.14
2017-10-20T10:27:22.435Z,61.57
2017-10-20T10:29:57.190Z,62.62
2017-10-20T10:32:27.985Z,62.95
2017-10-20T10:35:03.834Z,62.96
2017-10-20T10:37:43.543Z,62.61
2017-10-20T10:40:21.459Z,62.06
2017-10-20T10:42:53.911Z,60.96
2017-10-20T10:45:27.696Z,61.07
2017-10-20T10:47:59.353Z,62.34
2017-10-20T10:50:30.204Z,62.09
2017-10-20T10:53:01.137Z,62.64
2017-10-20T10:55:39.442Z,68.44
2017-10-20T10:58:16.633Z,73.85
2017-10-20T11:00:47.688Z,74.11
2017-10-20T11:03:18.643Z,76.13
2017-10-20T11:05:58.072Z,78.00
2017-10-20T11:09:40.951Z,76.41
2017-10-20T11:12:45.644Z,79.22
2017-10-20T11:15:16.421Z,79.16
2017-10-20T11:17:55.323Z,79.36
2017-10-20T11:20:27.527Z,79.06
2017-10-20T11:23:00.576Z,80.82
2017-10-20T11:25:31.303Z,79.21
2017-10-20T11:28:02.507Z,80.97
2017-10-20T11:30:33.358Z,78.80
2017-10-20T11:33:04.357Z,78.49
2017-10-20T11:35:36.542Z,78.15
2017-10-20T11:38:07.595Z,77.94
2017-10-20T11:40:41.049Z,77.95
2017-10-20T11:43:13.850Z,76.35
2017-10-20T11:45:45.299Z,73.49
2017-10-20T11:48:15.912Z,76.09
2017-10-20T11:50:47.215Z,75.59
2017-10-20T11:53:18.939Z,74.68
2017-10-20T11:55:50.111Z,73.97
2017-10-20T11:58:20.798Z,75.04
2017-10-20T12:00:51.622Z,73.69
2017-10-20T12:03:22.506Z,69.58
2017-10-20T12:05:52.981Z,69.15
2017-10-20T12:08:24.634Z,68.20
2017-10-20T12:10:55.224Z,68.88
2017-10-20T12:13:25.806Z,68.53
2017-10-20T12:15:56.519Z,68.06
2017-10-20T12:18:27.299Z,64.93
2017-10-20T12:20:58.252Z,63.91
2017-10-20T12:23:29.282Z,64.38
2017-10-20T12:26:00.455Z,65.25
2017-10-20T12:28:31.135Z,67.84
2017-10-20T12:31:02.149Z,67.77
2017-10-20T12:33:33.906Z,71.66
2017-10-20T12:36:04.831Z,69.22
2017-10-20T12:38:38.602Z,71.12
2017-10-20T12:41:09.837Z,68.65
2017-10-20T12:43:44.537Z,66.01
2017-10-20T12:46:16.112Z,63.65
2017-10-20T12:48:46.707Z,62.14
2017-10-20T12:51:17.391Z,60.11
2017-10-20T12:53:48.811Z,60.22
2017-10-20T12:56:19.313Z,60.14
2017-10-20T12:58:50.398Z,61.29
2017-10-20T13:01:21.278Z,60.78
2017-10-20T13:03:53.510Z,59.60
2017-10-20T13:06:24.476Z,60.79
2017-10-20T13:08:55.772Z,60.50
2017-10-20T13:11:28.267Z,60.55
2017-10-20T13:13:59.299Z,59.20
2017-10-20T13:16:30.089Z,58.71
2017-10-20T13:19:00.872Z,58.90
2017-10-20T13:21:31.812Z,59.18
2017-10-20T13:24:02.457Z,59.41
2017-10-20T13:26:33.213Z,58.79
2017-10-20T13:29:04.416Z,58.29
2017-10-20T13:31:36.796Z,59.19
2017-10-20T13:34:09.629Z,59.47
2017-10-20T13:36:42.505Z,58.78
2017-10-20T13:39:13.174Z,58.59
2017-10-20T13:41:44.354Z,59.50
2017-10-20T13:44:15.206Z,59.39
2017-10-20T13:46:46.261Z,59.07
2017-10-20T13:49:18.029Z,58.95
2017-10-20T13:51:48.676Z,58.34
2017-10-20T13:54:19.523Z,58.79
2017-10-20T13:56:51.291Z,58.88
2017-10-20T13:59:23.196Z,58.78
2017-10-20T14:01:53.954Z,58.38
2017-10-20T14:04:24.815Z,59.42
2017-10-20T14:06:55.402Z,59.13
2017-10-20T14:09:26.706Z,58.66
2017-10-20T14:11:58.294Z,58.97
2017-10-20T14:14:29.248Z,58.81
2017-10-20T14:17:00.797Z,59.11
2017-10-20T14:19:32.241Z,59.52
2017-10-20T14:22:03.463Z,59.20
2017-10-20T14:24:39.809Z,59.17
2017-10-20T14:27:10.538Z,59.34
2017-10-20T14:29:44.223Z,59.58
2017-10-20T14:32:14.872Z,59.69
2017-10-20T14:34:45.633Z,60.04
2017-10-20T14:37:16.805Z,60.05
2017-10-20T14:39:47.597Z,59.28
2017-10-20T14:42:18.317Z,58.92
2017-10-20T14:44:49.618Z,58.73
2017-10-20T14:47:20.295Z,59.62
2017-10-20T14:49:51.230Z,60.18
2017-10-20T14:52:22.892Z,59.91
2017-10-20T14:54:54.307Z,60.67
2017-10-20T14:57:25.964Z,60.64
2017-10-20T14:59:58.557Z,61.03
2017-10-20T15:02:29.958Z,60.44
2017-10-20T15:05:02.066Z,61.18
2017-10-20T15:07:33.058Z,61.10
2017-10-20T15:10:04.608Z,61.09
2017-10-20T15:12:42.489Z,61.43
2017-10-20T15:15:15.440Z,61.98
2017-10-20T15:17:46.546Z,62.43
2017-10-20T15:20:17.722Z,62.35
2017-10-20T15:22:48.326Z,62.96
2017-10-20T15:25:20.721Z,63.17
2017-10-20T15:27:51.658Z,63.29
2017-10-20T15:30:22.345Z,63.46
2017-10-20T15:32:53.618Z,63.75
2017-10-20T15:35:24.194Z,64.13
2017-10-20T15:37:54.868Z,64.85
2017-10-20T15:40:26.069Z,66.19
2017-10-20T15:42:56.921Z,67.28
2017-10-20T15:45:28.602Z,68.05
2017-10-20T15:47:59.896Z,70.58
2017-10-20T15:50:33.908Z,72.21
2017-10-20T15:53:49.648Z,71.85
2017-10-20T15:59:12.596Z,70.89
2017-10-20T16:01:50.864Z,70.50
2017-10-20T16:04:31.783Z,70.84
2017-10-20T16:07:09.398Z,71.29
2017-10-20T16:09:49.999Z,70.88
2017-10-20T16:12:25.101Z,70.77
2017-10-20T16:14:56.551Z,71.08
2017-10-20T16:17:27.351Z,69.73
2017-10-20T16:19:59.043Z,68.65
2017-10-20T16:22:30.697Z,66.53
2017-10-20T16:25:01.646Z,66.83
2017-10-20T16:27:32.454Z,67.20
2017-10-20T16:30:03.573Z,66.92
2017-10-20T16:32:34.276Z,67.76
2017-10-20T16:35:08.238Z,67.64
2017-10-20T16:37:43.805Z,67.29
2017-10-20T16:40:15.916Z,67.48
2017-10-20T16:42:46.776Z,67.85
2017-10-20T16:45:17.835Z,68.05
2017-10-20T16:47:49.729Z,67.40
2017-10-20T16:50:20.776Z,68.12
2017-10-20T16:52:52.255Z,66.91
2017-10-20T16:55:24.200Z,67.87
2017-10-20T16:57:55.018Z,68.17
2017-10-20T17:00:26.094Z,67.50
2017-10-20T17:02:57.628Z,66.44
2017-10-20T17:05:29.752Z,66.37
2017-10-20T17:08:00.802Z,66.32
2017-10-20T17:10:31.871Z,66.54
2017-10-20T17:13:04.066Z,66.48
2017-10-20T17:15:38.123Z,66.00
2017-10-20T17:18:08.949Z,67.13
2017-10-20T17:20:41.770Z,67.21
2017-10-20T17:23:12.991Z,67.18
2017-10-20T17:25:43.931Z,67.35
2017-10-20T17:28:15.851Z,66.30
2017-10-20T17:30:47.482Z,67.00
2017-10-20T17:33:18.562Z,67.23
2017-10-20T17:35:50.124Z,67.21
2017-10-20T17:38:23.223Z,67.93
2017-10-20T17:40:54.729Z,67.97
2017-10-20T17:43:25.714Z,68.00
2017-10-20T17:45:56.917Z,68.21
2017-10-20T17:48:29.655Z,68.58
2017-10-20T17:51:02.314Z,68.37
2017-10-20T17:53:34.292Z,68.34
2017-10-20T17:56:07.887Z,68.86
2017-10-20T17:58:46.063Z,69.47
2017-10-20T18:01:17.394Z,69.60
2017-10-20T18:03:52.728Z,69.21
2017-10-20T18:06:24.764Z,69.80
2017-10-20T18:08:56.213Z,70.19
2017-10-20T18:11:28.419Z,70.29
2017-10-20T18:14:01.130Z,70.55
2017-10-20T18:16:32.683Z,70.97
2017-10-20T18:19:06.252Z,71.04
2017-10-20T18:21:41.461Z,71.26
2017-10-20T18:24:12.699Z,71.34
2017-10-20T18:26:45.035Z,71.30
2017-10-20T18:29:18.984Z,71.73
2017-10-20T18:31:52.410Z,71.64
2017-10-20T18:34:28.668Z,71.79
2017-10-20T18:37:02.786Z,72.65
2017-10-20T18:39:37.447Z,72.75
2017-10-20T18:42:14.220Z,72.31
2017-10-20T18:44:47.730Z,72.68
2017-10-20T18:47:23.270Z,73.02
2017-10-20T18:49:56.378Z,73.07
2017-10-20T18:52:31.924Z,73.21
2017-10-20T18:55:13.797Z,73.45
2017-10-20T18:57:48.315Z,74.23
2017-10-20T19:00:23.382Z,73.69
2017-10-20T19:02:55.189Z,73.86
2017-10-20T19:05:27.681Z,73.92
2017-10-20T19:08:03.915Z,73.76
2017-10-20T19:10:54.945Z,73.66
2017-10-20T19:13:28.518Z,74.03
2017-10-20T19:16:00.696Z,73.86
2017-10-20T19:18:33.260Z,73.99
2017-10-20T19:21:14.207Z,74.02
2017-10-20T19:23:47.886Z,74.55
2017-10-20T19:26:19.342Z,75.05
2017-10-20T19:28:50.222Z,75.03
2017-10-20T19:31:25.937Z,75.07
2017-10-20T19:33:57.848Z,75.09
2017-10-20T19:36:32.428Z,75.10
2017-10-20T19:39:08.163Z,75.30
2017-10-20T19:41:42.787Z,75.52
2017-10-20T19:44:15.436Z,75.68
2017-10-20T19:46:46.748Z,75.58
2017-10-20T19:49:18.014Z,75.76
2017-10-20T19:51:49.214Z,75.75
2017-10-20T19:54:20.373Z,75.78
2017-10-20T19:56:51.343Z,76.05
2017-10-20T19:59:22.382Z,76.35
2017-10-20T20:01:53.547Z,76.44
2017-10-20T20:04:24.789Z,76.15
2017-10-20T20:06:55.814Z,76.43
2017-10-20T20:09:27.118Z,76.41
2017-10-20T20:11:58.665Z,76.53
2017-10-20T20:14:29.671Z,76.50
2017-10-20T20:17:00.705Z,76.70
2017-10-20T20:19:32.499Z,76.58
2017-10-20T20:22:03.544Z,76.30
2017-10-20T20:24:37.290Z,76.17
2017-10-20T20:27:09.748Z,76.02
2017-10-20T20:32:22.596Z,75.70
2017-10-20T20:34:55.086Z,75.80
2017-10-20T20:37:25.742Z,75.70
2017-10-20T20:39:56.680Z,75.62
2017-10-20T20:42:27.712Z,75.75
2017-10-20T20:44:59.585Z,75.93
2017-10-20T20:47:30.394Z,75.85
2017-10-20T20:50:02.704Z,75.95
2017-10-20T20:52:34.642Z,76.01
2017-10-20T20:55:07.047Z,76.16
2017-10-20T20:57:39.810Z,76.15
2017-10-20T21:00:12.012Z,76.48
2017-10-20T21:02:42.730Z,76.42
2017-10-20T21:05:13.217Z,76.67
2017-10-20T21:07:44.830Z,76.67
2017-10-20T21:10:16.068Z,76.69
2017-10-20T21:12:47.921Z,77.02
2017-10-20T21:15:18.926Z,76.92
2017-10-20T21:17:52.789Z,77.23
2017-10-20T21:20:26.581Z,77.19
2017-10-20T21:29:44.421Z,77.31
2017-10-20T21:32:43.936Z,77.81
2017-10-20T21:35:19.408Z,77.48
2017-10-20T21:37:57.693Z,77.73
2017-10-20T21:40:37.053Z,77.68
2017-10-20T21:43:11.850Z,77.58
2017-10-20T21:45:51.494Z,77.85
2017-10-20T21:48:30.524Z,77.51
2017-10-20T21:51:06.755Z,77.47
2017-10-20T21:53:45.146Z,77.55
2017-10-20T21:56:24.456Z,77.64
2017-10-20T21:59:02.274Z,78.20
2017-10-20T22:01:41.603Z,77.66
2017-10-20T22:04:18.717Z,77.56
2017-10-20T22:06:55.164Z,77.56
2017-10-20T22:09:26.780Z,77.76
2017-10-20T22:12:26.250Z,77.24
2017-10-20T22:15:11.564Z,77.23
2017-10-20T22:17:44.844Z,77.01
2017-10-20T22:20:15.443Z,77.21
2017-10-20T22:22:51.478Z,76.95
2017-10-20T22:25:22.760Z,76.98
2017-10-20T22:27:53.674Z,76.71
2017-10-20T22:30:24.331Z,76.93
2017-10-20T22:32:56.028Z,76.77
2017-10-20T22:35:28.278Z,76.70
2017-10-20T22:37:59.282Z,76.86
2017-10-20T22:40:30.849Z,76.92
2017-10-20T22:43:02.383Z,77.04
2017-10-20T22:45:33.218Z,77.06
2017-10-20T22:48:04.695Z,77.11
2017-10-20T22:50:41.202Z,77.25
2017-10-20T22:53:11.974Z,77.19
2017-10-20T22:55:43.206Z,77.20
2017-10-20T22:58:14.872Z,77.09
2017-10-20T23:00:45.426Z,77.06
2017-10-20T23:03:16.481Z,76.94
2017-10-20T23:08:57.243Z,76.80
2017-10-20T23:11:42.382Z,76.93
2017-10-20T23:14:23.439Z,76.87
2017-10-20T23:16:57.579Z,76.67
2017-10-20T23:19:34.210Z,76.64
2017-10-20T23:22:10.827Z,76.52
2017-10-20T23:24:52.962Z,76.56
2017-10-20T23:30:24.672Z,76.44
2017-10-20T23:33:04.231Z,76.52
2017-10-20T23:35:44.682Z,76.71
2017-10-20T23:38:19.842Z,76.44
2017-10-20T23:40:57.383Z,76.45
2017-10-20T23:43:31.695Z,76.29
2017-10-20T23:46:09.718Z,76.06
2017-10-20T23:48:52.242Z,76.36
2017-10-20T23:51:30.505Z,76.41
2017-10-20T23:56:41.433Z,75.79
2017-10-20T23:59:12.412Z,75.81
